Time;durP1;ratioP1;P1;durP2;ratioP2;P2;SDS_P1;SDS_P2;PMS_P1;PMS_P2;Temp;Humidity;BMP_temperature;BMP_pressure;BME280_temperature;BME280_humidity;BME280_pressure;Samples;Min_cycle;Max_cycle;Signal;HPM_P1;HPM_P2
2022/09/18 00:01:13;;;;;;;;;;;9.40;99.90;;;;;;4909661;29;19952;-73
2022/09/18 00:03:39;;;;;;;;;;;9.40;99.90;;;;;;4908391;29;19950;-73
2022/09/18 00:06:15;;;;;;;;;;;9.30;99.90;;;;;;4907475;29;19939;-73
2022/09/18 00:08:42;;;;;;;;;;;9.30;99.90;;;;;;4909621;29;19919;-73
2022/09/18 00:11:09;;;;;;;;;;;9.40;99.90;;;;;;4907854;29;20147;-72
2022/09/18 00:13:35;;;;;;;;;;;9.40;99.90;;;;;;4909095;29;19912;-73
2022/09/18 00:16:01;;;;;;;;;;;9.30;99.90;;;;;;4908040;29;19933;-73
2022/09/18 00:18:27;;;;;;;;;;;9.30;99.90;;;;;;4892384;29;20210;-73
2022/09/18 00:20:53;;;;;;;;;;;;;;;;;;4907935;29;19911;-73
2022/09/18 00:23:18;;;;;;;;;;;;;;;;;;4892457;29;19911;-73
2022/09/18 00:25:44;;;;;;;;;;;;;;;;;;4909203;29;20091;-73
2022/09/18 00:28:10;;;;;;;;;;;;;;;;;;4908658;29;19950;-73
2022/09/18 00:30:36;;;;;;;;;;;9.30;99.90;;;;;;4909074;29;19939;-73
2022/09/18 00:33:02;;;;;;;;;;;9.40;99.90;;;;;;4908754;29;19911;-73
2022/09/18 00:35:27;;;;;;;;;;;9.30;99.90;;;;;;4892396;29;19911;-73
2022/09/18 00:37:53;;;;;;;;;;;9.30;99.90;;;;;;4908555;29;19955;-73
2022/09/18 00:40:19;;;;;;;;;;;9.30;99.90;;;;;;4907756;29;19956;-73
2022/09/18 00:42:44;;;;;;;;;;;9.40;99.90;;;;;;4893011;29;19982;-73
2022/09/18 00:45:10;;;;;;;;;;;9.40;99.90;;;;;;4890126;29;19918;-73
2022/09/18 00:47:47;;;;;;;;;;;9.40;99.90;;;;;;4888526;29;19952;-73
2022/09/18 00:50:20;;;;;;;;;;;9.40;99.90;;;;;;4888868;29;19912;-73
2022/09/18 00:52:49;;;;;;;;;;;9.40;99.90;;;;;;4889012;29;19922;-73
2022/09/18 00:55:15;;;;;;;;;;;9.40;99.90;;;;;;4888962;29;19974;-73
2022/09/18 00:57:44;;;;;;;;;;;9.40;99.90;;;;;;4872162;29;19942;-73
2022/09/18 01:00:11;;;;;;;;;;;9.50;99.90;;;;;;4897201;29;19912;-73
2022/09/18 01:02:38;;;;;;;;;;;9.50;99.90;;;;;;4908577;29;19965;-73
2022/09/18 01:05:04;;;;;;;;;;;9.50;99.90;;;;;;4907446;29;20002;-73
2022/09/18 01:07:46;;;;;;;;;;;9.50;99.90;;;;;;4907094;29;20244;-73
2022/09/18 01:10:49;;;;;;;;;;;9.50;99.90;;;;;;4908286;29;20026;-74
2022/09/18 01:13:33;;;;;;;;;;;9.50;99.90;;;;;;4907024;29;19911;-73
2022/09/18 01:16:03;;;;;;;;;;;9.50;99.90;;;;;;4906538;29;20310;-73
2022/09/18 01:18:58;;;;;;;;;;;9.50;99.90;;;;;;4907107;29;19915;-73
2022/09/18 01:21:30;;;;;;;;;;;9.60;99.90;;;;;;4907735;29;19950;-74
2022/09/18 01:24:27;;;;;;;;;;;9.60;99.90;;;;;;4906983;29;20091;-73
2022/09/18 01:27:02;;;;;;;;;;;9.60;99.90;;;;;;4906964;29;19919;-73
2022/09/18 01:29:48;;;;;;;;;;;9.60;99.90;;;;;;4891521;29;19912;-73
2022/09/18 01:32:25;;;;;;;;;;;9.60;99.90;;;;;;4907028;29;19911;-73
2022/09/18 01:35:17;;;;;;;;;;;9.70;99.90;;;;;;4907005;29;19911;-73
2022/09/18 01:38:03;;;;;;;;;;;9.70;99.90;;;;;;4906749;29;20266;-74
2022/09/18 01:40:34;;;;;;;;;;;9.80;99.90;;;;;;4906840;29;19912;-73
2022/09/18 01:43:01;;;;;;;;;;;9.80;99.90;;;;;;4888206;29;19920;-74
2022/09/18 01:45:32;;;;;;;;;;;9.80;99.90;;;;;;4888005;29;19912;-73
2022/09/18 01:48:07;;;;;;;;;;;9.80;99.90;;;;;;4872431;29;19915;-74
2022/09/18 01:50:39;;;;;;;;;;;9.80;99.90;;;;;;4888175;29;19911;-73
2022/09/18 01:53:08;;;;;;;;;;;9.90;99.90;;;;;;4888151;29;19912;-73
2022/09/18 01:55:34;;;;;;;;;;;9.90;99.90;;;;;;4889255;29;19920;-73
2022/09/18 01:58:16;;;;;;;;;;;9.90;99.90;;;;;;4887828;29;20036;-73
2022/09/18 02:00:43;;;;;;;;;;;9.90;99.90;;;;;;4896266;29;19918;-73
2022/09/18 02:03:11;;;;;;;;;;;10.00;99.90;;;;;;4906804;29;20258;-73
2022/09/18 02:05:39;;;;;;;;;;;10.10;99.90;;;;;;4906605;29;19918;-73
2022/09/18 02:08:09;;;;;;;;;;;10.00;99.90;;;;;;4906512;29;19912;-73
2022/09/18 02:10:37;;;;;;;;;;;10.00;99.90;;;;;;4939280;23;19979;-73
2022/09/18 02:13:03;;;;;;;;;;;10.00;99.90;;;;;;4906406;29;19911;-73
2022/09/18 02:15:29;;;;;;;;;;;10.00;99.90;;;;;;4907492;29;19911;-73
2022/09/18 02:17:56;;;;;;;;;;;10.00;99.90;;;;;;4905905;29;20254;-73
2022/09/18 02:20:24;;;;;;;;;;;10.10;99.90;;;;;;4906407;29;20198;-73
2022/09/18 02:22:50;;;;;;;;;;;10.00;99.90;;;;;;4906471;29;19912;-73
2022/09/18 02:25:17;;;;;;;;;;;10.00;99.90;;;;;;4906285;29;19934;-73
2022/09/18 02:27:43;;;;;;;;;;;9.90;99.90;;;;;;4906875;29;19983;-73
2022/09/18 02:30:09;;;;;;;;;;;10.00;99.90;;;;;;4911139;29;19911;-73
2022/09/18 02:32:36;;;;;;;;;;;9.90;99.90;;;;;;4910071;29;19950;-73
2022/09/18 02:35:02;;;;;;;;;;;9.90;99.90;;;;;;4910115;29;20035;-73
2022/09/18 02:37:53;;;;;;;;;;;9.90;99.90;;;;;;4909781;29;19919;-73
2022/09/18 02:40:49;;;;;;;;;;;9.90;99.90;;;;;;4907234;29;19919;-73
2022/09/18 02:43:25;;;;;;;;;;;9.90;99.90;;;;;;4912180;29;19923;-72
2022/09/18 02:46:11;;;;;;;;;;;9.80;99.90;;;;;;4909919;29;19919;-73
2022/09/18 02:48:54;;;;;;;;;;;9.80;99.90;;;;;;4909930;29;19912;-73
2022/09/18 02:51:44;;;;;;;;;;;9.80;99.90;;;;;;4909653;29;19986;-73
2022/09/18 02:54:41;;;;;;;;;;;9.90;99.90;;;;;;4908781;29;20117;-73
2022/09/18 02:57:13;;;;;;;;;;;9.80;99.90;;;;;;4901993;29;20227;-73
2022/09/18 02:59:45;;;;;;;;;;;9.80;99.90;;;;;;4893901;29;20277;-73
2022/09/18 03:02:10;;;;;;;;;;;9.80;99.90;;;;;;4909210;29;20098;-74
2022/09/18 03:04:36;;;;;;;;;;;9.90;99.90;;;;;;4905934;29;19976;-73
2022/09/18 03:07:02;;;;;;;;;;;9.80;99.90;;;;;;4909085;29;20233;-73
2022/09/18 03:09:28;;;;;;;;;;;9.80;99.90;;;;;;4908557;29;19915;-73
2022/09/18 03:11:54;;;;;;;;;;;9.80;99.90;;;;;;4909960;29;20146;-73
2022/09/18 03:14:20;;;;;;;;;;;9.70;99.90;;;;;;4908377;29;19978;-73
2022/09/18 03:16:46;;;;;;;;;;;9.80;99.90;;;;;;4908897;29;20202;-73
2022/09/18 03:19:13;;;;;;;;;;;9.80;99.90;;;;;;4909295;29;19979;-73
2022/09/18 03:21:40;;;;;;;;;;;;;;;;;;4910287;29;19911;-73
2022/09/18 03:24:05;;;;;;;;;;;9.80;99.90;;;;;;4910283;29;20022;-74
2022/09/18 03:26:31;;;;;;;;;;;9.80;99.90;;;;;;4910024;29;20137;-74
2022/09/18 03:28:57;;;;;;;;;;;9.90;99.90;;;;;;4910008;29;19924;-74
2022/09/18 03:31:23;;;;;;;;;;;9.90;99.90;;;;;;4908784;29;19917;-73
2022/09/18 03:33:49;;;;;;;;;;;;;;;;;;4909038;29;20229;-73
2022/09/18 03:36:15;;;;;;;;;;;9.90;99.90;;;;;;4909819;29;20209;-73
2022/09/18 03:38:41;;;;;;;;;;;;;;;;;;4909874;29;19923;-74
2022/09/18 03:41:08;;;;;;;;;;;;;;;;;;4908794;29;19937;-74
2022/09/18 03:43:35;;;;;;;;;;;;;;;;;;4909863;29;19912;-74
2022/09/18 03:46:01;;;;;;;;;;;;;;;;;;4909425;29;19911;-74
2022/09/18 03:48:28;;;;;;;;;;;;;;;;;;4909092;29;20044;-73
2022/09/18 03:50:55;;;;;;;;;;;;;;;;;;4909769;29;19912;-71
2022/09/18 03:53:22;;;;;;;;;;;;;;;;;;4909724;29;19952;-71
2022/09/18 03:55:49;;;;;;;;;;;;;;;;;;4908538;29;19918;-71
2022/09/18 03:58:16;;;;;;;;;;;;;;;;;;4909357;29;20205;-73
2022/09/18 04:00:43;;;;;;;;;;;;;;;;;;4901956;29;19938;-73
2022/09/18 04:03:09;;;;;;;;;;;;;;;;;;4909226;29;19911;-73
2022/09/18 04:05:35;;;;;;;;;;;;;;;;;;4909586;29;20032;-73
2022/09/18 04:08:04;;;;;;;;;;;;;;;;;;4909255;29;19954;-73
2022/09/18 04:10:31;;;;;;;;;;;10.10;99.90;;;;;;4909226;29;19915;-73
2022/09/18 04:12:56;;;;;;;;;;;10.10;99.90;;;;;;4909353;29;19911;-73
2022/09/18 04:15:22;;;;;;;;;;;10.00;99.90;;;;;;4907931;29;19947;-73
2022/09/18 04:17:47;;;;;;;;;;;10.00;99.90;;;;;;4907733;29;19927;-73
2022/09/18 04:20:13;;;;;;;;;;;10.00;99.90;;;;;;4909166;29;20150;-72
2022/09/18 04:22:39;;;;;;;;;;;10.00;99.90;;;;;;4908142;29;19918;-72
2022/09/18 04:25:05;;;;;;;;;;;10.00;99.90;;;;;;4907988;29;19912;-72
2022/09/18 04:27:33;;;;;;;;;;;10.00;99.90;;;;;;4907702;29;19934;-72
2022/09/18 04:29:58;;;;;;;;;;;10.00;99.90;;;;;;4907930;29;20147;-72
2022/09/18 04:32:24;;;;;;;;;;;10.00;99.90;;;;;;4908760;29;19959;-72
2022/09/18 04:34:49;;;;;;;;;;;10.00;99.90;;;;;;4907957;29;20174;-72
2022/09/18 04:37:15;;;;;;;;;;;10.00;99.90;;;;;;4908615;29;19915;-72
2022/09/18 04:39:41;;;;;;;;;;;10.00;99.90;;;;;;4892090;29;19950;-72
2022/09/18 04:42:06;;;;;;;;;;;10.00;99.90;;;;;;4908870;29;19911;-72
2022/09/18 04:44:32;;;;;;;;;;;10.00;99.90;;;;;;4908858;29;19936;-73
2022/09/18 04:46:58;;;;;;;;;;;10.00;99.90;;;;;;4908185;29;19915;-73
2022/09/18 04:49:23;;;;;;;;;;;10.00;99.90;;;;;;4907579;29;19911;-73
2022/09/18 04:51:49;;;;;;;;;;;10.00;99.90;;;;;;4908143;29;20117;-73
2022/09/18 04:54:15;;;;;;;;;;;9.90;99.90;;;;;;4908579;29;20105;-73
2022/09/18 04:56:40;;;;;;;;;;;10.00;99.90;;;;;;4907196;29;19919;-72
2022/09/18 04:59:06;;;;;;;;;;;9.90;99.90;;;;;;4905801;29;20150;-72
2022/09/18 05:01:33;;;;;;;;;;;10.00;99.90;;;;;;4910340;29;19912;-72
2022/09/18 05:03:58;;;;;;;;;;;10.00;99.90;;;;;;4912566;29;19911;-72
2022/09/18 05:06:24;;;;;;;;;;;9.90;99.90;;;;;;4908008;29;20154;-72
2022/09/18 05:08:50;;;;;;;;;;;10.00;99.90;;;;;;4908180;29;20113;-72
2022/09/18 05:11:15;;;;;;;;;;;10.00;99.90;;;;;;4907010;29;19954;-72
2022/09/18 05:13:42;;;;;;;;;;;9.90;99.90;;;;;;4907091;29;19911;-73
2022/09/18 05:16:08;;;;;;;;;;;10.10;99.90;;;;;;4907736;29;19912;-72
2022/09/18 05:18:34;;;;;;;;;;;10.10;99.90;;;;;;4891462;29;19915;-72
2022/09/18 05:21:01;;;;;;;;;;;10.10;99.90;;;;;;4907035;29;19974;-72
2022/09/18 05:23:26;;;;;;;;;;;10.30;99.90;;;;;;4908023;29;19999;-72
2022/09/18 05:25:52;;;;;;;;;;;10.10;99.90;;;;;;4907044;29;19911;-72
2022/09/18 05:28:18;;;;;;;;;;;10.10;99.90;;;;;;4906845;29;20293;-72
2022/09/18 05:30:44;;;;;;;;;;;10.10;99.90;;;;;;4908011;29;19919;-72
2022/09/18 05:33:10;;;;;;;;;;;10.20;99.90;;;;;;4907717;29;20221;-70
2022/09/18 05:35:36;;;;;;;;;;;10.20;99.90;;;;;;4908033;29;19912;-68
2022/09/18 05:38:02;;;;;;;;;;;10.10;99.90;;;;;;4906777;29;19915;-69
2022/09/18 05:40:32;;;;;;;;;;;10.20;99.90;;;;;;4906767;29;19911;-69
2022/09/18 05:42:58;;;;;;;;;;;10.30;99.90;;;;;;4906840;29;19911;-68
2022/09/18 05:45:24;;;;;;;;;;;10.40;99.90;;;;;;4907852;29;20006;-67
2022/09/18 05:48:04;;;;;;;;;;;10.50;99.90;;;;;;4906299;29;19911;-67
2022/09/18 05:50:31;;;;;;;;;;;10.60;99.90;;;;;;4907648;29;19974;-68
2022/09/18 05:53:00;;;;;;;;;;;10.50;99.90;;;;;;4907742;29;20214;-71
2022/09/18 05:55:27;;;;;;;;;;;10.50;99.90;;;;;;4907469;29;20012;-71
2022/09/18 05:57:54;;;;;;;;;;;10.50;99.90;;;;;;4904546;29;19955;-76
2022/09/18 06:00:19;;;;;;;;;;;10.50;99.90;;;;;;4894882;29;19918;-76
2022/09/18 06:02:56;;;;;;;;;;;10.40;99.90;;;;;;4883307;29;19911;-75
2022/09/18 06:05:22;;;;;;;;;;;10.40;99.90;;;;;;4897661;29;19920;-69
2022/09/18 06:07:48;;;;;;;;;;;10.30;99.90;;;;;;4896886;29;19950;-73
2022/09/18 06:10:14;;;;;;;;;;;10.20;99.90;;;;;;4901890;29;19934;-71
2022/09/18 06:12:39;;;;;;;;;;;10.20;99.90;;;;;;4903936;29;19959;-71
2022/09/18 06:15:06;;;;;;;;;;;10.20;99.90;;;;;;4907846;29;19919;-71
2022/09/18 06:17:31;;;;;;;;;;;10.20;99.90;;;;;;4900128;29;20012;-71
2022/09/18 06:19:58;;;;;;;;;;;10.20;99.90;;;;;;4901261;29;19923;-71
2022/09/18 06:22:25;;;;;;;;;;;10.10;99.90;;;;;;4889833;29;19950;-76
2022/09/18 06:24:50;;;;;;;;;;;10.20;99.90;;;;;;4893981;29;19911;-76
2022/09/18 06:27:16;;;;;;;;;;;10.20;99.90;;;;;;4902575;29;19915;-76
2022/09/18 06:29:42;;;;;;;;;;;10.20;99.90;;;;;;4900148;29;20110;-76
2022/09/18 06:32:08;;;;;;;;;;;10.20;99.90;;;;;;4903736;29;19920;-76
2022/09/18 06:34:34;;;;;;;;;;;10.20;99.90;;;;;;4900898;29;19960;-76
2022/09/18 06:37:00;;;;;;;;;;;10.20;99.90;;;;;;4904943;29;19978;-76
2022/09/18 06:39:25;;;;;;;;;;;10.20;99.90;;;;;;4901056;29;19912;-76
2022/09/18 06:41:51;;;;;;;;;;;10.20;99.90;;;;;;4902048;29;19912;-76
2022/09/18 06:44:16;;;;;;;;;;;10.20;99.90;;;;;;4902861;29;19916;-76
2022/09/18 06:46:42;;;;;;;;;;;10.20;99.90;;;;;;4902468;29;19963;-75
2022/09/18 06:49:08;;;;;;;;;;;10.20;99.90;;;;;;4884258;29;20210;-75
2022/09/18 06:51:34;;;;;;;;;;;10.20;99.90;;;;;;4902359;29;19959;-74
2022/09/18 06:53:59;;;;;;;;;;;10.20;99.90;;;;;;4902330;29;19915;-74
2022/09/18 06:56:25;;;;;;;;;;;10.30;99.90;;;;;;4903542;29;19943;-75
2022/09/18 06:58:52;;;;;;;;;;;10.30;99.90;;;;;;4902017;29;19915;-75
2022/09/18 07:01:18;;;;;;;;;;;10.20;99.90;;;;;;4900108;29;19912;-75
2022/09/18 07:03:46;;;;;;;;;;;10.30;99.90;;;;;;4902731;29;20030;-75
2022/09/18 07:06:12;;;;;;;;;;;10.30;99.90;;;;;;4901626;29;19911;-75
2022/09/18 07:08:37;;;;;;;;;;;10.30;99.90;;;;;;4898124;29;20040;-75
2022/09/18 07:11:03;;;;;;;;;;;10.30;99.90;;;;;;4903533;29;20009;-71
2022/09/18 07:13:32;;;;;;;;;;;10.30;99.90;;;;;;4898579;29;19918;-71
2022/09/18 07:15:58;;;;;;;;;;;10.40;99.90;;;;;;4901163;29;19912;-72
2022/09/18 07:18:25;;;;;;;;;;;10.40;99.90;;;;;;4900147;29;20762;-72
2022/09/18 07:20:52;;;;;;;;;;;10.40;99.90;;;;;;4903535;29;19912;-71
2022/09/18 07:23:18;;;;;;;;;;;10.40;99.90;;;;;;4899107;29;19912;-73
2022/09/18 07:25:44;;;;;;;;;;;10.40;99.90;;;;;;4886392;29;19934;-73
2022/09/18 07:28:09;;;;;;;;;;;10.40;99.90;;;;;;4902216;29;19916;-71
2022/09/18 07:30:36;;;;;;;;;;;10.40;99.90;;;;;;4890037;29;19918;-71
2022/09/18 07:33:02;;;;;;;;;;;10.40;99.90;;;;;;4893835;29;19911;-71
2022/09/18 07:35:28;;;;;;;;;;;10.40;99.90;;;;;;4905062;29;19947;-72
2022/09/18 07:38:00;;;;;;;;;;;10.40;99.90;;;;;;4900718;29;19920;-72
2022/09/18 07:40:26;;;;;;;;;;;10.40;99.90;;;;;;4898848;29;19923;-72
2022/09/18 07:42:56;;;;;;;;;;;10.40;99.90;;;;;;4902107;29;20186;-72
2022/09/18 07:45:22;;;;;;;;;;;10.40;99.90;;;;;;4899390;29;20206;-72
2022/09/18 07:47:48;;;;;;;;;;;10.40;99.90;;;;;;4900145;29;19918;-72
2022/09/18 07:50:14;;;;;;;;;;;10.40;99.90;;;;;;4901424;29;19931;-71
2022/09/18 07:52:48;;;;;;;;;;;10.40;99.90;;;;;;4900773;29;19920;-72
2022/09/18 07:55:14;;;;;;;;;;;10.40;99.90;;;;;;4904968;29;19919;-72
2022/09/18 07:57:40;;;;;;;;;;;10.40;99.90;;;;;;4902857;29;20225;-72
2022/09/18 08:00:08;;;;;;;;;;;10.50;99.90;;;;;;4906894;29;19990;-71
2022/09/18 08:02:33;;;;;;;;;;;10.40;99.90;;;;;;4898962;29;19964;-74
2022/09/18 08:04:59;;;;;;;;;;;10.50;99.90;;;;;;4901646;29;19927;-71
2022/09/18 08:07:25;;;;;;;;;;;10.50;99.90;;;;;;4902646;29;19915;-72
2022/09/18 08:09:51;;;;;;;;;;;10.40;99.90;;;;;;4904323;29;20139;-71
2022/09/18 08:12:16;;;;;;;;;;;10.40;99.90;;;;;;4929080;23;20189;-72
2022/09/18 08:14:42;;;;;;;;;;;10.50;99.90;;;;;;4918480;29;19924;-70
2022/09/18 08:17:07;;;;;;;;;;;10.40;99.90;;;;;;4918101;29;19915;-70
2022/09/18 08:19:33;;;;;;;;;;;10.50;99.90;;;;;;4919328;29;19915;-70
2022/09/18 08:21:59;;;;;;;;;;;10.40;99.90;;;;;;4906689;29;19935;-71
2022/09/18 08:24:24;;;;;;;;;;;10.50;99.90;;;;;;4900119;29;19923;-70
2022/09/18 08:26:50;;;;;;;;;;;10.50;99.90;;;;;;4900081;29;19982;-70
2022/09/18 08:29:19;;;;;;;;;;;10.60;99.90;;;;;;4903551;29;19982;-70
2022/09/18 08:31:45;;;;;;;;;;;10.60;99.90;;;;;;4900492;29;20105;-70
2022/09/18 08:34:11;;;;;;;;;;;10.60;99.90;;;;;;4898434;29;20017;-71
2022/09/18 08:36:37;;;;;;;;;;;10.60;99.90;;;;;;4899800;29;20155;-70
2022/09/18 08:39:02;;;;;;;;;;;10.60;99.90;;;;;;4900348;29;19923;-69
2022/09/18 08:42:07;;;;;;;;;;;10.60;99.90;;;;;;4894830;29;19915;-70
2022/09/18 08:44:47;;;;;;;;;;;10.60;99.90;;;;;;4896802;29;19941;-70
2022/09/18 08:47:17;;;;;;;;;;;10.60;99.90;;;;;;4901060;29;19911;-71
2022/09/18 08:49:52;;;;;;;;;;;10.60;99.90;;;;;;4897905;29;19920;-70
2022/09/18 08:52:24;;;;;;;;;;;10.70;99.90;;;;;;4894064;29;19924;-69
2022/09/18 08:55:35;;;;;;;;;;;10.70;99.90;;;;;;4901613;29;20160;-70
2022/09/18 08:58:06;;;;;;;;;;;10.80;99.90;;;;;;4902915;29;19955;-71
2022/09/18 09:00:37;;;;;;;;;;;10.80;99.90;;;;;;4900746;29;19923;-70
2022/09/18 09:03:28;;;;;;;;;;;10.80;99.90;;;;;;4899652;29;19947;-70
2022/09/18 09:05:57;;;;;;;;;;;10.80;99.90;;;;;;4903486;29;20147;-71
2022/09/18 09:08:50;;;;;;;;;;;10.80;99.90;;;;;;4901261;29;19958;-70
2022/09/18 09:11:34;;;;;;;;;;;11.00;99.90;;;;;;4896922;29;19923;-70
2022/09/18 09:14:18;;;;;;;;;;;11.00;99.90;;;;;;4899950;29;19993;-71
2022/09/18 09:16:49;;;;;;;;;;;11.10;99.90;;;;;;4901939;29;19931;-70
2022/09/18 09:19:27;;;;;;;;;;;11.20;99.90;;;;;;4900566;29;19919;-71
2022/09/18 09:21:59;;;;;;;;;;;11.30;99.90;;;;;;4898514;29;19922;-71
2022/09/18 09:24:27;;;;;;;;;;;11.40;99.90;;;;;;4900454;29;19959;-70
2022/09/18 09:26:53;;;;;;;;;;;11.50;99.90;;;;;;4902700;29;19982;-70
2022/09/18 09:29:22;;;;;;;;;;;11.50;99.90;;;;;;4900398;29;20214;-71
2022/09/18 09:31:50;;;;;;;;;;;11.60;99.90;;;;;;4879930;29;20225;-71
2022/09/18 09:34:21;;;;;;;;;;;11.70;99.90;;;;;;4897884;29;20099;-71
2022/09/18 09:36:47;;;;;;;;;;;11.70;99.90;;;;;;4898213;29;19916;-71
2022/09/18 09:39:35;;;;;;;;;;;11.70;99.90;;;;;;4901783;29;19919;-71
2022/09/18 09:42:06;;;;;;;;;;;11.80;99.90;;;;;;4900067;29;19923;-71
2022/09/18 09:44:37;;;;;;;;;;;11.80;99.90;;;;;;4895792;29;20211;-71
2022/09/18 09:47:21;;;;;;;;;;;11.80;99.90;;;;;;4899223;29;19915;-71
2022/09/18 09:50:02;;;;;;;;;;;11.80;99.90;;;;;;4903837;29;19915;-71
2022/09/18 09:52:28;;;;;;;;;;;11.80;99.90;;;;;;4900125;29;19915;-71
2022/09/18 09:55:07;;;;;;;;;;;11.90;99.90;;;;;;4899376;29;19918;-71
2022/09/18 09:57:50;;;;;;;;;;;12.00;99.90;;;;;;4903063;29;19927;-71
2022/09/18 10:00:17;;;;;;;;;;;12.00;99.90;;;;;;4900111;29;20137;-70
2022/09/18 10:03:06;;;;;;;;;;;11.90;99.90;;;;;;4900759;29;19918;-69
2022/09/18 10:05:39;;;;;;;;;;;11.90;99.90;;;;;;4909928;29;19911;-70
2022/09/18 10:08:16;;;;;;;;;;;11.90;99.90;;;;;;4898390;29;19916;-68
2022/09/18 10:10:53;;;;;;;;;;;11.90;99.90;;;;;;4895046;29;19918;-69
2022/09/18 10:13:25;;;;;;;;;;;12.00;99.90;;;;;;4898389;29;20181;-69
2022/09/18 10:16:21;;;;;;;;;;;12.00;99.90;;;;;;4899380;29;19920;-71
2022/09/18 10:18:47;;;;;;;;;;;12.00;99.90;;;;;;4895168;29;19919;-71
2022/09/18 10:21:23;;;;;;;;;;;12.00;99.90;;;;;;4897975;29;20237;-71
2022/09/18 10:24:10;;;;;;;;;;;11.90;99.90;;;;;;4894438;29;20103;-69
2022/09/18 10:26:42;;;;;;;;;;;11.90;99.90;;;;;;4899924;29;19943;-72
2022/09/18 10:29:08;;;;;;;;;;;11.90;99.90;;;;;;4899122;29;19911;-71
2022/09/18 10:31:48;;;;;;;;;;;12.10;99.90;;;;;;4900010;29;19943;-71
2022/09/18 10:34:41;;;;;;;;;;;12.20;99.90;;;;;;4898796;29;19912;-71
2022/09/18 10:37:28;;;;;;;;;;;12.30;99.90;;;;;;4897483;29;19923;-71
2022/09/18 10:39:56;;;;;;;;;;;12.40;99.90;;;;;;4894889;29;19974;-71
2022/09/18 10:42:26;;;;;;;;;;;12.50;99.90;;;;;;4898993;29;20106;-71
2022/09/18 10:44:54;;;;;;;;;;;12.50;99.90;;;;;;4897949;29;19915;-71
2022/09/18 10:47:21;;;;;;;;;;;12.50;99.90;;;;;;4902671;29;19939;-71
2022/09/18 10:49:55;;;;;;;;;;;12.60;99.90;;;;;;4894191;29;19927;-71
2022/09/18 10:52:25;;;;;;;;;;;12.60;99.90;;;;;;4901611;29;19918;-71
2022/09/18 10:55:06;;;;;;;;;;;12.60;99.90;;;;;;4902672;29;19912;-71
2022/09/18 10:57:33;;;;;;;;;;;12.60;99.90;;;;;;4902943;29;19923;-71
2022/09/18 10:59:58;;;;;;;;;;;12.50;99.90;;;;;;4903507;29;19912;-71
2022/09/18 11:02:26;;;;;;;;;;;12.30;99.90;;;;;;4900096;29;19952;-70
2022/09/18 11:04:52;;;;;;;;;;;12.30;99.90;;;;;;4904090;29;19958;-71
2022/09/18 11:07:19;;;;;;;;;;;12.20;99.90;;;;;;4909282;29;19911;-71
2022/09/18 11:09:45;;;;;;;;;;;12.10;99.90;;;;;;4909555;29;19915;-71
2022/09/18 11:12:19;;;;;;;;;;;12.10;99.90;;;;;;4909557;29;19925;-71
2022/09/18 11:14:50;;;;;;;;;;;12.10;99.90;;;;;;4910451;29;19920;-71
2022/09/18 11:17:27;;;;;;;;;;;12.00;99.90;;;;;;4909203;29;20210;-71
2022/09/18 11:19:54;;;;;;;;;;;12.00;99.90;;;;;;4909145;29;19978;-71
2022/09/18 11:22:38;;;;;;;;;;;12.00;99.90;;;;;;4909376;29;19991;-70
2022/09/18 11:25:15;;;;;;;;;;;11.90;99.90;;;;;;4909941;29;19919;-70
2022/09/18 11:27:46;;;;;;;;;;;11.80;99.90;;;;;;4910344;29;20167;-70
2022/09/18 11:30:25;;;;;;;;;;;11.80;99.90;;;;;;4910330;29;19991;-70
2022/09/18 11:32:54;;;;;;;;;;;11.70;99.90;;;;;;4910263;29;19918;-70
2022/09/18 11:35:20;;;;;;;;;;;11.60;99.90;;;;;;4909057;29;19911;-70
2022/09/18 11:37:47;;;;;;;;;;;11.60;99.90;;;;;;4908694;29;19995;-70
2022/09/18 11:40:20;;;;;;;;;;;11.60;99.90;;;;;;4909319;29;19946;-70
2022/09/18 11:42:46;;;;;;;;;;;11.60;99.90;;;;;;4908899;29;19918;-70
2022/09/18 11:45:47;;;;;;;;;;;11.70;99.90;;;;;;4908929;29;20184;-70
2022/09/18 11:48:22;;;;;;;;;;;11.70;99.90;;;;;;4909030;29;19911;-69
2022/09/18 11:50:50;;;;;;;;;;;11.70;99.90;;;;;;4909717;29;19950;-70
2022/09/18 11:53:18;;;;;;;;;;;11.70;99.90;;;;;;4909496;29;19911;-69
2022/09/18 11:56:01;;;;;;;;;;;11.70;99.90;;;;;;4908534;29;19912;-70
2022/09/18 11:58:39;;;;;;;;;;;11.70;99.90;;;;;;4909608;29;19922;-70
2022/09/18 12:01:28;;;;;;;;;;;11.80;99.90;;;;;;4908538;29;19911;-69
2022/09/18 12:04:00;;;;;;;;;;;11.80;99.90;;;;;;4909013;29;19918;-69
2022/09/18 12:06:35;;;;;;;;;;;11.80;99.90;;;;;;4909040;29;19946;-69
2022/09/18 12:09:10;;;;;;;;;;;11.80;99.90;;;;;;4909651;29;19918;-69
2022/09/18 12:11:41;;;;;;;;;;;11.90;99.90;;;;;;4908575;29;19916;-69
2022/09/18 12:14:23;;;;;;;;;;;11.90;99.90;;;;;;4908406;29;20229;-70
2022/09/18 12:16:51;;;;;;;;;;;11.90;99.90;;;;;;4908031;29;19915;-70
2022/09/18 12:19:36;;;;;;;;;;;11.90;99.90;;;;;;4909297;29;19915;-70
2022/09/18 12:22:13;;;;;;;;;;;12.00;99.90;;;;;;4909370;29;19911;-70
2022/09/18 12:24:38;;;;;;;;;;;12.00;99.90;;;;;;4907285;29;20139;-69
2022/09/18 12:27:13;;;;;;;;;;;12.10;99.90;;;;;;4907965;29;19912;-69
2022/09/18 12:29:45;;;;;;;;;;;12.20;99.90;;;;;;4907914;29;19911;-70
2022/09/18 12:32:34;;;;;;;;;;;12.30;99.90;;;;;;4909168;29;19911;-70
2022/09/18 12:35:13;;;;;;;;;;;12.40;99.90;;;;;;4909135;29;19967;-69
2022/09/18 12:37:52;;;;;;;;;;;12.50;99.90;;;;;;4907578;29;19991;-66
2022/09/18 12:40:25;;;;;;;;;;;12.60;99.90;;;;;;4907486;29;19918;-70
2022/09/18 12:43:14;;;;;;;;;;;12.60;99.90;;;;;;4908878;29;20094;-70
2022/09/18 12:45:52;;;;;;;;;;;12.60;99.90;;;;;;4907682;29;19911;-70
2022/09/18 12:48:37;;;;;;;;;;;12.60;99.90;;;;;;4908306;29;19911;-70
2022/09/18 12:51:06;;;;;;;;;;;12.70;99.90;;;;;;4907611;29;19912;-70
2022/09/18 12:53:49;;;;;;;;;;;12.70;99.90;;;;;;4908662;29;19915;-70
2022/09/18 12:56:30;;;;;;;;;;;12.70;99.90;;;;;;4907388;29;20198;-70
2022/09/18 12:59:16;;;;;;;;;;;12.70;99.90;;;;;;4908510;29;20134;-70
2022/09/18 13:01:45;;;;;;;;;;;12.70;99.90;;;;;;4908265;29;19953;-69
2022/09/18 13:04:30;;;;;;;;;;;12.70;99.90;;;;;;4907479;29;19911;-69
2022/09/18 13:07:15;;;;;;;;;;;12.80;99.90;;;;;;4896810;29;19911;-70
2022/09/18 13:09:54;;;;;;;;;;;12.80;99.90;;;;;;4898113;29;19915;-70
2022/09/18 13:12:30;;;;;;;;;;;12.90;99.90;;;;;;4893839;29;19947;-69
2022/09/18 13:15:01;;;;;;;;;;;12.90;99.90;;;;;;4903517;29;20222;-70
2022/09/18 13:17:33;;;;;;;;;;;13.00;99.90;;;;;;4883450;29;20092;-73
2022/09/18 13:20:23;;;;;;;;;;;12.90;99.90;;;;;;4891875;29;19947;-69
2022/09/18 13:22:49;;;;;;;;;;;12.90;99.90;;;;;;4895368;29;19911;-69
2022/09/18 13:25:30;;;;;;;;;;;13.00;99.90;;;;;;4913822;29;20088;-70
2022/09/18 13:27:56;;;;;;;;;;;13.00;99.90;;;;;;4899627;29;19919;-70
2022/09/18 13:30:24;;;;;;;;;;;13.00;99.90;;;;;;4898499;29;19935;-67
2022/09/18 13:32:50;;;;;;;;;;;13.00;99.90;;;;;;4899901;29;20151;-67
2022/09/18 13:35:26;;;;;;;;;;;13.00;99.90;;;;;;4898810;29;19915;-68
2022/09/18 13:38:08;;;;;;;;;;;13.00;99.90;;;;;;4896047;29;19924;-69
2022/09/18 13:40:35;;;;;;;;;;;13.00;99.90;;;;;;4898964;29;20245;-69
2022/09/18 13:43:31;;;;;;;;;;;12.90;99.90;;;;;;4900781;29;20113;-69
2022/09/18 13:46:01;;;;;;;;;;;12.90;99.90;;;;;;4899127;29;19919;-74
2022/09/18 13:48:38;;;;;;;;;;;12.80;99.90;;;;;;4899346;29;19930;-69
2022/09/18 13:51:06;;;;;;;;;;;12.80;99.90;;;;;;4896531;29;19912;-69
2022/09/18 13:53:42;;;;;;;;;;;12.80;99.90;;;;;;4893286;29;20001;-69
2022/09/18 13:56:10;;;;;;;;;;;12.70;99.90;;;;;;4893182;29;19930;-72
2022/09/18 13:58:56;;;;;;;;;;;12.70;99.90;;;;;;4899388;29;20209;-72
2022/09/18 14:01:40;;;;;;;;;;;12.80;99.90;;;;;;4898272;29;19975;-72
2022/09/18 14:04:37;;;;;;;;;;;12.70;99.90;;;;;;4899853;29;19918;-74
2022/09/18 14:07:23;;;;;;;;;;;12.70;99.90;;;;;;4894333;29;19912;-72
2022/09/18 14:10:03;;;;;;;;;;;12.60;99.90;;;;;;4896943;29;19923;-73
2022/09/18 14:12:30;;;;;;;;;;;12.60;99.90;;;;;;4880966;29;20156;-75
2022/09/18 14:15:23;;;;;;;;;;;12.60;99.90;;;;;;4892048;29;20236;-74
2022/09/18 14:18:13;;;;;;;;;;;12.60;99.90;;;;;;4899969;29;20201;-73
2022/09/18 14:20:38;;;;;;;;;;;12.60;99.90;;;;;;4899101;29;20103;-73
2022/09/18 14:23:37;;;;;;;;;;;12.60;99.90;;;;;;4882566;29;19919;-74
2022/09/18 14:26:24;;;;;;;;;;;12.60;99.90;;;;;;4894363;29;19911;-73
2022/09/18 14:28:50;;;;;;;;;;;12.50;99.90;;;;;;4897742;29;19911;-73
2022/09/18 14:31:30;;;;;;;;;;;12.60;99.90;;;;;;4924980;23;20210;-74
2022/09/18 14:34:01;;;;;;;;;;;12.50;99.90;;;;;;4905714;29;19947;-74
2022/09/18 14:36:26;;;;;;;;;;;12.40;99.90;;;;;;4901645;29;19919;-75
2022/09/18 14:38:52;;;;;;;;;;;12.40;99.90;;;;;;4902973;29;20273;-74
2022/09/18 14:41:25;;;;;;;;;;;12.30;99.90;;;;;;4899902;29;19933;-74
2022/09/18 14:44:00;;;;;;;;;;;12.30;99.90;;;;;;4902282;29;20387;-74
2022/09/18 14:46:26;;;;;;;;;;;12.30;99.90;;;;;;4917189;29;20194;-75
2022/09/18 14:48:52;;;;;;;;;;;12.20;99.90;;;;;;4917806;29;19982;-74
2022/09/18 14:51:23;;;;;;;;;;;12.10;99.90;;;;;;4916915;29;19919;-74